Time;durP1;ratioP1;P1;durP2;ratioP2;P2;SDS_P1;SDS_P2;PMS_P1;PMS_P2;Temp;Humidity;BMP_temperature;BMP_pressure;BME280_temperature;BME280_humidity;BME280_pressure;Samples;Min_cycle;Max_cycle;Signal;HPM_P1;HPM_P2
2022/01/12 00:00:24;;;;;;;11.13;7.10;;;;;;;;;;6175292;23;20084;-86
2022/01/12 00:02:52;;;;;;;12.55;7.60;;;;;;;;;;6175792;23;20037;-89
2022/01/12 00:05:19;;;;;;;12.40;7.32;;;;;;;;;;6166520;23;20438;-83
2022/01/12 00:07:49;;;;;;;10.57;6.93;;;;;;;;;;6194183;23;20084;-89
2022/01/12 00:10:21;;;;;;;10.23;7.20;;;;;;;;;;6167584;23;20013;-91
2022/01/12 00:12:59;;;;;;;12.18;7.60;;;;;;;;;;6179977;23;20001;-89
2022/01/12 00:15:48;;;;;;;9.32;6.75;;;;;;;;;;6147635;23;20342;-91
2022/01/12 00:18:16;;;;;;;11.98;7.43;;;;;;;;;;6191859;23;20013;-90
2022/01/12 00:20:43;;;;;;;12.57;7.55;;;;;;;;;;6172466;23;20020;-90
2022/01/12 00:23:17;;;;;;;10.80;7.65;;;;;;;;;;6193232;23;20004;-79
2022/01/12 00:26:02;;;;;;;10.65;7.32;;;;;;;;;;6260763;23;20004;-91
2022/01/12 00:34:13;;;;;;;13.07;8.50;;;;;;;;;;6259130;23;20077;-86
2022/01/12 00:36:59;;;;;;;11.80;7.65;;;;;;;;;;6142215;23;20097;-89
2022/01/12 00:39:25;;;;;;;12.88;7.50;;;;;;;;;;6108727;23;20002;-88
2022/01/12 00:41:51;;;;;;;13.70;8.32;;;;;;;;;;6118998;23;20367;-83
2022/01/12 00:44:29;;;;;;;14.27;7.75;;;;;;;;;;6112930;23;20077;-88
2022/01/12 00:46:56;;;;;;;16.02;8.15;;;;;;;;;;6107516;23;20018;-85
2022/01/12 00:49:22;;;;;;;15.02;8.40;;;;;;;;;;6108920;23;20385;-83
2022/01/12 00:51:54;;;;;;;13.93;8.30;;;;;;;;;;6109645;23;20013;-83
2022/01/12 00:54:25;;;;;;;11.70;7.35;;;;;;;;;;6134674;23;20017;-84
2022/01/12 00:56:55;;;;;;;15.40;8.10;;;;;;;;;;6128188;23;20045;-86
2022/01/12 00:59:22;;;;;;;11.88;7.28;;;;;;;;;;6108018;23;20100;-91
2022/01/12 01:01:48;;;;;;;11.13;7.07;;;;;;;;;;6110549;23;20080;-85
2022/01/12 01:04:14;;;;;;;12.68;7.45;;;;;;;;;;6108973;23;20002;-88
2022/01/12 01:06:41;;;;;;;11.50;7.65;;;;;;;;;;6131894;23;20104;-81
2022/01/12 01:09:07;;;;;;;12.88;8.15;;;;;;;;;;6109649;23;20018;-90
2022/01/12 01:11:34;;;;;;;11.90;7.00;;;;;;;;;;6109081;23;20010;-90
2022/01/12 01:14:14;;;;;;;11.70;7.60;;;;;;;;;;6201670;23;20004;-83
2022/01/12 01:27:28;;;;;;;10.63;7.43;;;;;;;;;;6258834;23;20142;-85
2022/01/12 01:30:05;;;;;;;11.35;8.13;;;;;;;;;;6237103;23;20343;-81
2022/01/12 01:32:44;;;;;;;13.90;7.57;;;;;;;;;;6235245;23;20008;-83
2022/01/12 01:35:12;;;;;;;12.02;7.53;;;;;;;;;;6233542;23;20016;-80
2022/01/12 01:37:41;;;;;;;13.27;7.68;;;;;;;;;;6232346;23;20007;-80
2022/01/12 01:40:10;;;;;;;12.73;7.47;;;;;;;;;;6231481;23;20004;-80
2022/01/12 01:43:06;;;;;;;11.32;7.53;;;;;;;;;;6260068;23;19996;-83
2022/01/12 01:53:46;;;;;;;11.52;7.35;;;;;;;;;;6261594;23;20034;-83
2022/01/12 01:56:20;;;;;;;10.32;6.30;;;;;;;;;;6268618;23;20012;-83
2022/01/12 01:58:49;;;;;;;13.25;7.80;;;;;;;;;;6237159;23;20072;-84
2022/01/12 02:01:16;;;;;;;10.68;6.85;;;;;;;;;;6263520;23;20027;-81
2022/01/12 02:03:44;;;;;;;13.35;7.80;;;;;;;;;;6237428;23;20046;-80
2022/01/12 02:06:11;;;;;;;10.85;7.28;;;;;;;;;;6261016;23;20035;-81
2022/01/12 02:08:38;;;;;;;12.00;7.10;;;;;;;;;;6232576;23;20039;-80
2022/01/12 02:11:07;;;;;;;11.68;7.45;;;;;;;;;;6260399;23;20000;-80
2022/01/12 02:13:34;;;;;;;10.63;5.60;;;;;;;;;;6265770;23;20027;-82
2022/01/12 02:16:03;;;;;;;12.45;7.32;;;;;;;;;;6261229;23;20075;-80
2022/01/12 02:40:56;;;;;;;11.93;7.15;;;;;;;;;;6164555;23;20132;-87
2022/01/12 02:51:29;;;;;;;14.98;7.78;;;;;;;;;;6165613;23;20049;-85
2022/01/12 02:53:59;;;;;;;12.07;7.93;;;;;;;;;;6139437;23;20504;-88
2022/01/12 02:56:29;;;;;;;12.55;8.02;;;;;;;;;;6138711;23;20033;-85
2022/01/12 02:58:58;;;;;;;12.02;7.50;;;;;;;;;;6167028;23;20032;-87
2022/01/12 03:03:58;;;;;;;12.13;7.95;;;;;;;;;;6164072;23;20016;-81
2022/01/12 03:06:31;;;;;;;11.88;7.00;;;;;;;;;;6163691;23;20384;-87
2022/01/12 03:08:57;;;;;;;11.35;7.25;;;;;;;;;;6163831;23;20020;-82
2022/01/12 03:11:24;;;;;;;11.13;6.93;;;;;;;;;;6231113;23;20035;-87
2022/01/12 03:13:51;;;;;;;11.10;7.60;;;;;;;;;;6230922;23;19996;-84
2022/01/12 03:16:22;;;;;;;15.38;8.30;;;;;;;;;;6261131;23;20001;-82
2022/01/12 03:19:08;;;;;;;11.07;7.50;;;;;;;;;;6262723;23;20091;-84
2022/01/12 03:21:35;;;;;;;14.63;7.63;;;;;;;;;;6258662;23;20095;-79
2022/01/12 03:24:01;;;;;;;13.80;7.88;;;;;;;;;;6265772;23;20007;-87
2022/01/12 03:26:29;;;;;;;14.13;8.23;;;;;;;;;;6234720;23;20452;-85
2022/01/12 03:28:57;;;;;;;12.98;8.40;;;;;;;;;;6230173;23;20088;-87
2022/01/12 03:31:29;;;;;;;13.65;7.70;;;;;;;;;;6229194;23;20012;-86
2022/01/12 03:34:10;;;;;;;14.00;8.82;;;;;;;;;;6229765;23;20000;-82
2022/01/12 03:36:53;;;;;;;14.18;8.15;;;;;;;;;;6235741;23;20022;-77
2022/01/12 03:39:21;;;;;;;13.98;8.00;;;;;;;;;;6229901;23;20084;-77
2022/01/12 03:41:48;;;;;;;18.13;9.95;;;;;;;;;;6258786;23;20011;-80
2022/01/12 03:44:17;;;;;;;14.63;9.00;;;;;;;;;;6256990;23;20011;-86
2022/01/12 03:46:46;;;;;;;17.33;10.00;;;;;;;;;;6262275;23;20461;-89
2022/01/12 03:49:14;;;;;;;15.07;8.63;;;;;;;;;;6257908;23;20062;-81
2022/01/12 03:51:41;;;;;;;13.50;8.40;;;;;;;;;;6257624;23;19996;-80
2022/01/12 03:54:07;;;;;;;14.07;8.32;;;;;;;;;;6258603;23;20000;-90
2022/01/12 03:56:34;;;;;;;15.70;8.80;;;;;;;;;;6256790;23;20009;-80
2022/01/12 03:59:06;;;;;;;11.27;7.53;;;;;;;;;;6257645;23;20068;-89
2022/01/12 04:01:37;;;;;;;15.40;8.90;;;;;;;;;;6234329;23;20005;-80
2022/01/12 04:04:10;;;;;;;11.70;7.75;;;;;;;;;;6228811;23;20004;-82
2022/01/12 04:09:23;;;;;;;15.02;8.00;;;;;;;;;;6268194;22;20051;-86
2022/01/12 04:11:59;;;;;;;13.70;7.13;;;;;;;;;;6226578;23;20008;-89
2022/01/12 04:14:27;;;;;;;13.13;7.28;;;;;;;;;;6229085;23;20019;-90
2022/01/12 04:16:55;;;;;;;23.20;10.93;;;;;;;;;;6230505;23;20000;-87
2022/01/12 04:19:27;;;;;;;13.52;7.63;;;;;;;;;;6258737;23;20004;-83
2022/01/12 04:22:06;;;;;;;17.55;8.07;;;;;;;;;;6230802;23;20461;-87
2022/01/12 04:24:35;;;;;;;17.58;7.72;;;;;;;;;;6259135;23;20008;-85
2022/01/12 04:27:03;;;;;;;15.75;6.70;;;;;;;;;;6258445;23;20287;-89
2022/01/12 04:29:30;;;;;;;12.25;7.05;;;;;;;;;;6264114;23;19996;-90
2022/01/12 04:31:56;;;;;;;11.23;7.05;;;;;;;;;;6233272;23;20008;-90
2022/01/12 04:34:29;;;;;;;11.25;6.63;;;;;;;;;;6241381;23;20004;-82
2022/01/12 04:36:55;;;;;;;12.93;6.20;;;;;;;;;;6232988;23;20008;-79
2022/01/12 04:39:21;;;;;;;12.45;7.03;;;;;;;;;;6258630;23;19996;-79
2022/01/12 04:41:55;;;;;;;11.13;6.30;;;;;;;;;;6238452;23;20023;-87
2022/01/12 04:44:23;;;;;;;10.35;6.55;;;;;;;;;;6236457;23;20386;-80
2022/01/12 04:47:04;;;;;;;9.32;5.78;;;;;;;;;;6257666;23;19996;-81
2022/01/12 04:52:02;;;;;;;9.10;5.97;;;64.60;2201.60;;;;;;6261015;23;20445;-77
2022/01/12 04:54:28;;;;;;;9.38;6.45;;;;;;;;;;6259212;23;20008;-78
2022/01/12 04:56:54;;;;;;;10.38;6.40;;;;;;;;;;6236578;23;20038;-77
2022/01/12 04:59:20;;;;;;;11.05;5.88;;;;;;;;;;6229394;23;20004;-77
2022/01/12 05:01:56;;;;;;;10.73;7.05;;;;;;;;;;6261199;23;20000;-78
2022/01/12 05:07:29;;;;;;;10.88;6.68;;;64.80;2201.60;;;;;;6261513;23;20019;-81
2022/01/12 05:12:48;;;;;;;11.75;6.78;;;89.60;2201.60;;;;;;6234346;23;20097;-77
2022/01/12 05:12:54;;;;;;;11.30;6.70;;;64.90;2201.60;;;;;;6257632;23;20461;-79
2022/01/12 05:15:34;;;;;;;10.82;6.43;;;89.60;2201.60;;;;;;6257856;23;20008;-78
2022/01/12 05:18:00;;;;;;;10.45;5.75;;;39.30;2201.60;;;;;;6233873;23;20003;-77
2022/01/12 05:20:26;;;;;;;12.75;6.05;;;89.70;2176.00;;;;;;6259636;23;20012;-78
2022/01/12 05:22:52;;;;;;;11.23;6.95;;;89.80;2176.00;;;;;;6258573;23;20000;-78
2022/01/12 05:25:18;;;;;;;11.93;7.32;;;89.70;2176.00;;;;;;6258771;23;20004;-77
2022/01/12 05:27:45;;;;;;;11.13;6.32;;;89.70;2176.00;;;;;;6261242;23;20004;-81
2022/01/12 05:30:13;;;;;;;11.43;7.40;;;89.70;2176.00;;;;;;6258913;23;20004;-79
2022/01/12 05:32:38;;;;;;;10.00;6.80;;;89.80;2176.00;;;;;;6263555;23;20005;-81
2022/01/12 05:35:06;;;;;;;10.13;6.45;;;89.80;2176.00;;;;;;6261515;23;20015;-80
2022/01/12 05:37:32;;;;;;;10.18;6.68;;;89.80;2176.00;;;;;;6264004;23;20071;-80
2022/01/12 05:40:01;;;;;;;11.20;7.28;;;89.90;2176.00;;;;;;6257362;23;19996;-78
2022/01/12 05:42:27;;;;;;;11.77;7.60;;;89.80;2176.00;;;;;;6258976;23;20027;-81
2022/01/12 05:44:52;;;;;;;12.23;7.18;;;89.90;2176.00;;;;;;6259866;23;20020;-80
2022/01/12 05:47:35;;;;;;;12.65;7.45;;;90.00;2176.00;;;;;;6258531;23;20022;-78
2022/01/12 05:50:01;;;;;;;11.80;7.85;;;89.90;2176.00;;;;;;6235068;23;20026;-81
2022/01/12 05:52:26;;;;;;;10.55;7.07;;;90.00;2176.00;;;;;;6259318;23;20004;-78
2022/01/12 05:54:52;;;;;;;14.20;8.32;;;90.00;2176.00;;;;;;6259086;23;20012;-77
2022/01/12 05:57:18;;;;;;;13.18;8.32;;;90.00;2176.00;;;;;;6260726;23;20004;-77
2022/01/12 05:59:44;;;;;;;13.35;8.15;;;90.00;2176.00;;;;;;6259798;23;20000;-79
2022/01/12 06:02:12;;;;;;;14.10;7.88;;;89.90;2176.00;;;;;;6259764;23;20011;-78
2022/01/12 06:04:59;;;;;;;14.48;8.57;;;90.00;2176.00;;;;;;6167272;23;20490;-82
2022/01/12 06:07:25;;;;;;;13.98;7.90;;;90.00;2176.00;;;;;;6168505;23;20583;-79
2022/01/12 06:09:50;;;;;;;16.50;9.73;;;90.00;2176.00;;;;;;6165039;23;20021;-77
2022/01/12 06:12:16;;;;;;;15.63;9.07;;;90.00;2176.00;;;;;;6163750;23;20017;-79
2022/01/12 06:14:42;;;;;;;15.98;9.43;;;90.00;2176.00;;;;;;6172527;23;20061;-79
2022/01/12 06:17:09;;;;;;;18.08;10.00;;;90.00;2176.00;;;;;;6164405;23;20037;-78
2022/01/12 06:19:35;;;;;;;20.10;10.93;;;90.10;2176.00;;;;;;6165806;23;20474;-78
2022/01/12 06:22:00;;;;;;;19.20;11.52;;;90.00;2176.00;;;;;;6169349;23;20006;-78
2022/01/12 06:24:28;;;;;;;17.10;10.80;;;90.10;2176.00;;;;;;6167561;23;20009;-79
2022/01/12 06:27:17;;;;;;;18.70;11.32;;;90.10;2176.00;;;;;;6143488;23;20037;-79
2022/01/12 06:29:50;;;;;;;19.80;11.90;;;90.10;2176.00;;;;;;6123149;23;20002;-80
2022/01/12 06:32:16;;;;;;;56.05;28.67;;;90.10;2176.00;;;;;;6167244;23;20017;-79
2022/01/12 06:34:42;;;;;;;96.22;49.45;;;90.10;2176.00;;;;;;6166517;23;20081;-78
2022/01/12 06:37:08;;;;;;;47.80;26.98;;;90.10;2176.00;;;;;;6168467;23;20555;-79
2022/01/12 06:39:34;;;;;;;28.85;16.73;;;90.10;2176.00;;;;;;6168117;23;19998;-78
2022/01/12 06:42:00;;;;;;;25.70;15.10;;;90.00;2176.00;;;;;;6166468;23;20440;-77
2022/01/12 06:44:26;;;;;;;24.27;14.57;;;90.00;2176.00;;;;;;6167246;23;20186;-78
2022/01/12 06:46:53;;;;;;;27.73;15.60;;;90.10;2176.00;;;;;;6167386;23;20521;-76
2022/01/12 06:49:19;;;;;;;23.67;13.70;;;90.10;2176.00;;;;;;6161908;23;20097;-77
2022/01/12 06:51:46;;;;;;;26.85;15.27;;;90.20;2176.00;;;;;;6161373;23;20009;-74
2022/01/12 06:54:16;;;;;;;88.13;54.40;;;90.20;2176.00;;;;;;6174316;23;20023;-78
2022/01/12 06:56:42;;;;;;;45.47;29.20;;;90.10;2176.00;;;;;;6173236;23;20008;-76
2022/01/12 06:59:14;;;;;;;39.38;25.23;;;90.10;2176.00;;;;;;6143768;23;20015;-79
2022/01/12 07:01:42;;;;;;;33.83;21.10;;;90.10;2176.00;;;;;;6167122;23;20010;-84
2022/01/12 07:04:09;;;;;;;24.13;14.93;;;;;;;;;;6144611;23;20380;-82
2022/01/12 07:06:36;;;;;;;25.52;17.33;;;;;;;;;;6140976;23;20017;-82
2022/01/12 07:09:06;;;;;;;35.00;22.13;;;;;;;;;;6168884;23;20186;-82
2022/01/12 07:11:44;;;;;;;26.02;15.10;;;;;;;;;;6168690;23;20009;-83
2022/01/12 07:14:10;;;;;;;25.83;15.77;;;;;;;;;;6188806;23;20426;-85
2022/01/12 07:16:41;;;;;;;37.60;22.30;;;;;;;;;;6248507;23;20012;-90
2022/01/12 07:19:10;;;;;;;36.40;20.00;;;;;;;;;;6257391;23;19997;-81
2022/01/12 07:21:36;;;;;;;42.35;23.42;;;;;;;;;;6255252;23;20112;-77
2022/01/12 07:24:03;;;;;;;35.88;21.25;;;;;;;;;;6258002;23;20000;-81
2022/01/12 07:26:31;;;;;;;35.75;18.98;;;;;;;;;;6261957;23;20000;-81
2022/01/12 07:29:11;;;;;;;37.30;22.88;;;;;;;;;;6240211;23;20019;-82
2022/01/12 07:31:49;;;;;;;34.72;18.73;;;;;;;;;;6236580;23;20068;-92
2022/01/12 07:34:35;;;;;;;32.42;19.10;;;;;;;;;;6230296;23;19993;-86
2022/01/12 07:37:01;;;;;;;34.13;20.23;;;;;;;;;;6204080;23;20008;-80
2022/01/12 07:39:27;;;;;;;30.20;18.52;;;;;;;;;;6217822;23;20004;-76
2022/01/12 07:41:55;;;;;;;30.73;17.77;;;;;;;;;;6217325;23;20008;-75
2022/01/12 07:44:21;;;;;;;35.90;20.65;;;;;;;;;;6215337;23;20000;-74
2022/01/12 07:46:48;;;;;;;30.63;18.75;;;;;;;;;;6215057;23;20001;-74
2022/01/12 07:49:16;;;;;;;31.25;19.20;;;;;;;;;;6215075;23;20000;-78
2022/01/12 07:51:42;;;;;;;36.08;20.65;;;;;;;;;;6214872;23;20079;-76
2022/01/12 07:54:36;;;;;;;32.78;18.23;;;;;;;;;;6217590;23;20451;-87
2022/01/12 07:57:05;;;;;;;31.23;19.30;;;;;;;;;;6163739;23;20002;-90
2022/01/12 07:59:34;;;;;;;34.20;21.30;;;;;;;;;;6137784;23;20017;-86
2022/01/12 08:02:04;;;;;;;29.75;18.13;;;;;;;;;;6165865;23;20017;-82
2022/01/12 08:04:30;;;;;;;33.92;20.83;;;;;;;;;;6142018;23;20008;-83
2022/01/12 08:07:15;;;;;;;34.33;20.52;;;;;;;;;;6166945;23;20012;-89
2022/01/12 08:09:48;;;;;;;37.83;19.83;;;;;;;;;;6161193;23;20049;-85
2022/01/12 08:12:24;;;;;;;33.58;19.67;;;;;;;;;;6165435;23;20012;-87
2022/01/12 08:14:58;;;;;;;29.50;17.55;;;;;;;;;;6163659;23;20014;-89
2022/01/12 08:17:24;;;;;;;;;;;;;;;;;;6167359;23;20013;-78
2022/01/12 08:20:00;;;;;;;29.73;18.67;;;;;;;;;;6168217;23;19907;-83
2022/01/12 08:22:27;;;;;;;36.72;20.67;;;;;;;;;;6137106;23;20024;-75
2022/01/12 08:24:53;;;;;;;46.95;24.92;;;;;;;;;;6162497;23;20490;-78
2022/01/12 08:27:21;;;;;;;32.33;19.02;;;;;;;;;;6174471;23;20047;-79
2022/01/12 08:29:59;;;;;;;33.65;19.55;;;;;;;;;;6222230;23;20013;-89
2022/01/12 08:32:46;;;;;;;;;;;;;;;;;;;;;
2022/01/12 08:35:14;;;;;;;36.15;22.75;;;;;;;;;;6154398;23;20059;-81
2022/01/12 08:37:40;;;;;;;28.70;18.20;;;;;;;;;;6254308;23;19996;-74
2022/01/12 08:40:19;;;;;;;37.30;21.58;;;;;;;;;;6227836;23;20019;-77
2022/01/12 08:42:48;;;;;;;36.63;19.90;;;;;;;;;;6250299;23;20491;-85
2022/01/12 08:45:36;;;;;;;32.40;19.40;;;;;;;;;;6259373;23;20026;-81
2022/01/12 08:48:02;;;;;;;37.47;21.70;;;;;;;;;;6226740;23;20004;-81
2022/01/12 08:50:30;;;;;;;35.95;20.52;;;;;;;;;;6253869;23;20000;-76
2022/01/12 08:52:56;;;;;;;34.00;18.70;;;;;;;;;;6239617;23;20004;-79
2022/01/12 08:55:23;;;;;;;35.40;20.73;;;;;;;;;;6258099;23;20348;-77
2022/01/12 08:57:50;;;;;;;36.38;21.13;;;;;;;;;;6260347;23;19996;-89
2022/01/12 09:00:17;;;;;;;36.20;20.63;;;;;;;;;;6232573;23;20008;-78
2022/01/12 09:02:47;;;;;;;35.72;20.90;;;;;;;;;;6233290;23;20479;-81
2022/01/12 09:05:14;;;;;;;32.67;19.98;;;;;;;;;;6254696;23;20308;-76
2022/01/12 09:07:41;;;;;;;32.65;19.77;;;;;;;;;;6254167;23;20011;-86
2022/01/12 09:10:08;;;;;;;32.35;19.98;;;;;;;;;;6255553;23;20023;-83
2022/01/12 09:12:36;;;;;;;34.75;19.23;;;;;;;;;;6225402;23;20000;-77
2022/01/12 09:15:02;;;;;;;37.25;20.80;;;;;;;;;;6222996;23;20044;-75
2022/01/12 09:17:28;;;;;;;44.03;21.83;;;;;;;;;;6247208;23;20007;-79
2022/01/12 09:19:57;;;;;;;38.20;21.35;;;;;;;;;;6251845;23;20014;-87
2022/01/12 09:22:24;;;;;;;35.85;20.05;;;;;;;;;;6256267;23;20004;-86
2022/01/12 09:24:51;;;;;;;41.88;22.75;;;;;;;;;;6249562;23;20331;-76
2022/01/12 09:27:18;;;;;;;36.65;20.50;;;;;;;;;;6222692;23;20008;-75
2022/01/12 09:29:45;;;;;;;36.85;22.92;;;;;;;;;;6250083;23;19996;-76
2022/01/12 09:32:11;;;;;;;32.47;19.33;;;;;;;;;;6222597;23;20043;-76
2022/01/12 09:34:37;;;;;;;30.88;18.98;;;;;;;;;;6249347;23;20008;-77
2022/01/12 09:37:03;;;;;;;34.25;18.58;;;;;;;;;;6248144;23;20008;-75
2022/01/12 09:39:31;;;;;;;28.13;16.80;;;;;;;;;;6256327;23;20031;-85
2022/01/12 09:41:57;;;;;;;32.70;19.20;;;;;;;;;;6248955;23;20030;-74
2022/01/12 09:44:46;;;;;;;28.83;17.63;;;;;;;;;;6247923;23;20313;-76
2022/01/12 09:47:12;;;;;;;31.60;18.55;;;;;;;;;;6248393;23;20075;-76
2022/01/12 09:49:41;;;;;;;35.35;19.05;;;;;;;;;;6249564;23;20426;-75
2022/01/12 09:52:12;;;;;;;35.72;19.83;;;;;;;;;;6258684;23;20004;-76
2022/01/12 09:54:56;;;;;;;30.38;18.52;;;;;;;;;;6254446;23;20027;-79
2022/01/12 09:57:25;;;;;;;33.45;18.58;;;;;;;;;;6232591;23;20005;-78
2022/01/12 09:59:56;;;;;;;;;;;;;;;;;;6260031;23;20007;-80
2022/01/12 10:02:26;;;;;;;32.80;18.58;;;;;;;;;;6255792;23;20127;-77
2022/01/12 10:05:09;;;;;;;34.47;20.60;;;;;;;;;;6228772;23;20050;-79
2022/01/12 10:07:36;;;;;;;31.40;17.73;;;;;;;;;;6263542;23;20001;-87
2022/01/12 10:10:09;;;;;;;31.20;18.67;;;;;;;;;;6257730;22;20023;-74
2022/01/12 10:12:39;;;;;;;42.03;22.60;;;;;;;;;;6236037;23;20008;-76
2022/01/12 10:15:13;;;;;;;38.20;22.40;;;;;;;;;;6257857;23;20478;-88
2022/01/12 10:17:44;;;;;;;40.87;23.07;;;;;;;;;;6256957;23;20030;-76
2022/01/12 10:20:18;;;;;;;34.10;19.98;;;;;;;;;;6255688;23;20047;-85
2022/01/12 10:30:01;;;;;;;35.33;19.55;;;;;;;;;;5967806;24;20065;-89
2022/01/12 10:33:22;;;;;;;31.75;19.58;;;;;;;;;;5963451;24;20013;-81
2022/01/12 10:42:28;;;;;;;;;;;;;;;;;;;;;
2022/01/12 10:51:41;;;;;;;37.78;21.52;;;;;;;;;;5943436;24;20012;-90
2022/01/12 10:54:20;;;;;;;36.58;20.55;;;;;;;;;;5937992;23;20009;-77
2022/01/12 11:02:04;;;;;;;50.35;25.85;;;;;;;;;;6283389;22;20019;-80
2022/01/12 11:04:41;;;;;;;34.95;20.70;;;;;;;;;;6285250;22;20004;-79
2022/01/12 11:07:07;;;;;;;34.22;19.48;;;;;;;;;;6267074;22;20007;-80
2022/01/12 11:09:35;;;;;;;33.92;19.98;;;;;;;;;;6293288;22;20007;-76
2022/01/12 11:17:28;;;;;;;33.63;21.00;;;;;;;;;;6293904;22;20056;-79
2022/01/12 11:20:27;;;;;;;36.28;20.52;;;;;;;;;;6241632;22;20003;-78
2022/01/12 11:23:13;;;;;;;35.08;20.60;;;;;;;;;;6266240;22;20086;-78
2022/01/12 11:25:40;;;;;;;35.13;20.55;;;;;;;;;;6264263;22;20059;-73
2022/01/12 11:28:07;;;;;;;37.88;21.85;;;;;;;;;;6269326;22;20325;-76
2022/01/12 11:30:41;;;;;;;37.20;21.73;;;;;;;;;;6260868;22;20031;-78
2022/01/12 11:33:18;;;;;;;36.55;20.13;;;;;;;;;;6288652;22;20002;-84
2022/01/12 11:35:49;;;;;;;34.92;20.33;;;;;;;;;;6260135;22;20018;-79
2022/01/12 11:38:37;;;;;;;38.10;22.02;;;;;;;;;;6291327;22;20004;-78
2022/01/12 11:41:36;;;;;;;35.33;21.67;;;;;;;;;;6287779;22;19999;-74
2022/01/12 11:44:09;;;;;;;43.03;24.23;;;;;;;;;;6134710;23;20496;-78
2022/01/12 11:46:53;;;;;;;48.05;27.25;;;;;;;;;;6115958;23;20006;-77
2022/01/12 11:49:44;;;;;;;136.13;63.55;;;;;;;;;;6139433;23;20010;-76
2022/01/12 11:52:36;;;;;;;53.13;29.02;;;;;;;;;;6044552;23;20010;-78
2022/01/12 11:55:22;;;;;;;50.97;27.77;;;;;;;;;;6038937;23;20350;-75
2022/01/12 11:57:51;;;;;;;61.63;33.53;;;;;;;;;;6042664;23;20008;-73
2022/01/12 12:00:27;;;;;;;50.58;28.70;;;;;;;;;;6052499;23;20003;-77
2022/01/12 12:03:14;;;;;;;37.63;22.60;;;;;;;;;;6048404;23;20035;-81
2022/01/12 12:05:41;;;;;;;48.55;28.15;;;;;;;;;;6021929;23;20618;-77
2022/01/12 12:08:08;;;;;;;47.83;26.73;;;;;;;;;;6020007;23;20133;-77
2022/01/12 12:10:36;;;;;;;40.88;23.67;;;;;;;;;;6043743;23;20064;-77
2022/01/12 12:13:03;;;;;;;38.70;22.75;;;;;;;;;;6046227;23;20414;-76
2022/01/12 12:15:30;;;;;;;36.28;22.00;;;;;;;;;;6014527;23;20442;-74
2022/01/12 12:18:04;;;;;;;35.00;21.17;;;;;;;;;;6040610;23;20011;-72
2022/01/12 12:20:31;;;;;;;34.10;20.65;;;;;;;;;;6144601;23;20001;-73
2022/01/12 12:22:57;;;;;;;36.80;21.38;;;;;;;;;;6168131;23;20032;-73
2022/01/12 12:25:25;;;;;;;38.58;22.50;;;;;;;;;;6164330;23;20080;-75
2022/01/12 12:27:53;;;;;;;34.97;19.88;;;;;;;;;;6142185;23;20005;-75
2022/01/12 12:30:22;;;;;;;40.88;22.00;;;;;;;;;;6260501;23;20308;-72
2022/01/12 12:32:49;;;;;;;36.38;21.48;;;;;;;;;;6261102;23;20430;-72
2022/01/12 12:35:23;;;;;;;36.85;21.83;;;;;;;;;;6259546;23;20012;-73
2022/01/12 12:37:54;;;;;;;37.55;20.58;;;;;;;;;;6226271;23;20000;-74
2022/01/12 12:40:29;;;;;;;35.30;20.70;;;;;;;;;;6220739;23;20463;-72
2022/01/12 12:43:07;;;;;;;33.85;20.40;;;;;;;;;;6226627;23;20043;-78
2022/01/12 12:45:36;;;;;;;39.55;21.83;;;;;;;;;;6229498;23;20004;-74
2022/01/12 12:48:21;;;;;;;33.40;21.35;;;;;;;;;;6256517;23;20032;-72
2022/01/12 12:50:47;;;;;;;34.42;20.63;;;;;;;;;;6228165;23;20031;-75
2022/01/12 12:53:14;;;;;;;36.42;21.38;;;;;;;;;;6226491;23;20019;-76
2022/01/12 12:55:41;;;;;;;33.47;20.45;;;;;;;;;;6238579;23;20016;-73
2022/01/12 12:58:08;;;;;;;35.17;20.75;;;;;;;;;;6232249;23;20004;-74
2022/01/12 13:04:01;;;;;;;36.35;20.73;;;;;;;;;;6291371;22;20081;-76
2022/01/12 13:06:34;;;;;;;38.50;22.27;;;;;;;;;;6256009;22;20004;-73
2022/01/12 13:09:08;;;;;;;36.03;20.95;;;;;;;;;;6259478;22;20012;-74
2022/01/12 13:11:35;;;;;;;40.00;20.33;;;;;;;;;;6249059;22;20003;-73
2022/01/12 13:14:03;;;;;;;34.28;20.10;;;;;;;;;;6276009;22;20027;-74
2022/01/12 13:16:29;;;;;;;31.25;19.63;;;;;;;;;;6285568;22;20021;-75
2022/01/12 13:19:08;;;;;;;33.95;20.13;;;;;;;;;;6289362;22;20023;-77
2022/01/12 13:21:36;;;;;;;34.38;19.05;;;;;;;;;;6292034;22;20004;-77
2022/01/12 13:24:03;;;;;;;33.85;20.13;;;;;;;;;;6283210;22;19996;-73
2022/01/12 13:26:31;;;;;;;36.28;21.08;;;;;;;;;;6278655;22;20426;-77
2022/01/12 13:28:58;;;;;;;39.83;21.17;;;;;;;;;;6255733;22;20015;-74
2022/01/12 13:31:24;;;;;;;36.65;21.13;;;;;;;;;;6281198;22;20733;-83
2022/01/12 13:33:54;;;;;;;37.70;21.83;;;;;;;;;;6281704;22;20011;-77
2022/01/12 13:36:30;;;;;;;37.35;20.15;;;;;;;;;;6288221;22;20012;-74
2022/01/12 13:39:09;;;;;;;34.60;20.08;;;;;;;;;;6261948;22;19980;-80
2022/01/12 13:41:37;;;;;;;37.72;21.02;;;;;;;;;;6287201;22;20030;-79
2022/01/12 13:44:08;;;;;;;34.88;21.27;;;;;;;;;;6258896;22;20051;-76
2022/01/12 13:46:51;;;;;;;38.83;22.65;;;;;;;;;;6254009;22;20011;-74
2022/01/12 13:52:03;;;;;;;36.65;20.52;;;;;;;;;;6276786;22;20003;-74
2022/01/12 13:54:35;;;;;;;35.75;21.42;;;;;;;;;;6277758;22;20022;-82
2022/01/12 13:57:02;;;;;;;38.17;22.73;;;;;;;;;;6283816;22;20000;-75
2022/01/12 13:59:32;;;;;;;33.95;20.02;;;;;;;;;;6258233;22;20007;-87
2022/01/12 14:01:59;;;;;;;34.63;20.23;;;;;;;;;;6226066;23;20030;-79
2022/01/12 14:04:56;;;;;;;37.90;20.90;;;;;;;;;;6256451;23;20001;-75
2022/01/12 14:07:23;;;;;;;40.83;20.45;;;;;;;;;;6182818;23;20008;-75
2022/01/12 14:09:56;;;;;;;35.35;21.13;;;;;;;;;;6228113;23;20004;-77
2022/01/12 14:12:24;;;;;;;28.30;16.17;;;;;;;;;;6247408;23;20016;-74
2022/01/12 14:14:53;;;;;;;38.90;20.00;;;;;;;;;;6220247;23;20087;-77
2022/01/12 14:17:22;;;;;;;35.78;20.77;;;;;;;;;;6247219;23;20004;-74
2022/01/12 14:19:56;;;;;;;35.28;20.48;;;;;;;;;;6251364;23;20022;-79
2022/01/12 14:22:22;;;;;;;34.80;20.63;;;;;;;;;;6252140;23;20000;-74
2022/01/12 14:25:03;;;;;;;34.65;19.27;;;;;;;;;;6248193;23;20000;-75
2022/01/12 14:27:40;;;;;;;35.40;20.90;;;;;;;;;;6248906;23;20000;-75
2022/01/12 14:30:08;;;;;;;39.90;21.90;;;;;;;;;;6221440;23;20083;-76
2022/01/12 14:32:36;;;;;;;49.17;26.38;;;;;;;;;;6251229;23;19996;-76
2022/01/12 14:35:05;;;;;;;50.45;27.40;;;;;;;;;;6248509;23;20426;-75
2022/01/12 14:37:37;;;;;;;106.03;43.80;;;;;;;;;;6249742;23;20023;-80
2022/01/12 14:40:05;;;;;;;47.13;27.10;;;;;;;;;;6249920;23;20422;-77
2022/01/12 14:42:48;;;;;;;74.82;36.08;;;;;;;;;;6250204;23;20008;-76
2022/01/12 14:45:24;;;;;;;54.88;31.00;;;;;;;;;;6250770;23;20035;-75
2022/01/12 14:47:51;;;;;;;47.35;28.90;;;;;;;;;;6252344;23;20054;-76
2022/01/12 14:50:18;;;;;;;53.20;28.83;;;;;;;;;;6250347;23;20075;-75
2022/01/12 14:52:49;;;;;;;36.92;21.80;;;;;;;;;;6230934;23;19985;-78
2022/01/12 14:55:16;;;;;;;35.55;20.63;;;;;;;;;;6257816;23;20014;-78
2022/01/12 14:57:44;;;;;;;36.33;19.77;;;;;;;;;;6233696;23;20019;-78
2022/01/12 15:00:21;;;;;;;36.13;20.90;;;;;;;;;;6261441;22;20075;-78
2022/01/12 15:02:48;;;;;;;44.72;26.08;;;;;;;;;;6203481;23;20430;-77
2022/01/12 15:05:14;;;;;;;48.78;29.33;;;;;;;;;;6252980;23;20442;-76
2022/01/12 15:07:40;;;;;;;44.60;25.55;;;;;;;;;;6255383;23;20035;-78
2022/01/12 15:10:07;;;;;;;43.97;24.45;;;;;;;;;;6253537;23;20015;-76
2022/01/12 15:12:37;;;;;;;43.63;26.00;;;;;;;;;;6254596;23;20008;-76
2022/01/12 15:15:07;;;;;;;47.63;25.90;;;;;;;;;;6253252;23;20034;-76
2022/01/12 15:17:34;;;;;;;52.10;30.00;;;;;;;;;;6254542;23;20083;-75
2022/01/12 15:20:02;;;;;;;56.00;29.33;;;;;;;;;;6252760;23;20083;-75
2022/01/12 15:22:28;;;;;;;41.97;24.00;;;;;;;;;;6252744;23;20000;-81
2022/01/12 15:24:54;;;;;;;42.33;25.13;;;;;;;;;;6252939;23;20004;-76
2022/01/12 15:27:21;;;;;;;44.65;24.77;;;;;;;;;;6238755;23;20008;-79
2022/01/12 15:29:50;;;;;;;48.58;27.95;;;;;;;;;;6236772;23;20001;-81
2022/01/12 15:32:16;;;;;;;146.30;62.00;;;;;;;;;;6257294;23;20011;-80
2022/01/12 15:34:42;;;;;;;55.88;31.05;;;;;;;;;;6257387;23;20455;-84
2022/01/12 15:37:08;;;;;;;51.63;29.50;;;;;;;;;;6254435;23;20004;-83
2022/01/12 15:39:34;;;;;;;56.70;30.48;;;;;;;;;;6257933;23;20004;-91
2022/01/12 15:42:03;;;;;;;53.67;30.23;;;;;;;;;;6256500;23;20018;-76
2022/01/12 15:44:30;;;;;;;51.13;28.63;;;;;;;;;;6260016;23;20004;-90
2022/01/12 15:46:56;;;;;;;52.15;28.55;;;;;;;;;;6259343;23;19988;-72
2022/01/12 15:49:22;;;;;;;52.35;30.42;;;;;;;;;;6258777;23;20004;-91
2022/01/12 15:51:48;;;;;;;54.40;30.95;;;;;;;;;;6254111;23;20362;-86
2022/01/12 15:54:15;;;;;;;58.80;34.20;;;;;;;;;;6254041;23;20062;-85
2022/01/12 15:56:42;;;;;;;54.95;32.88;;;;;;;;;;6253484;23;20012;-77
2022/01/12 15:59:08;;;;;;;56.90;31.77;;;;;;;;;;6253995;23;20000;-76
2022/01/12 16:01:34;;;;;;;68.85;37.63;;;;;;;;;;6253880;22;20016;-74
2022/01/12 16:04:18;;;;;;;61.28;35.72;;;;;;;;;;6257603;23;20051;-76
2022/01/12 16:06:50;;;;;;;61.33;35.28;;;;;;;;;;6194867;23;20081;-77